createdAt,value
2024-02-08T00:00:22.754Z,100569.28
2024-02-08T00:02:49.969Z,100569.50
2024-02-08T00:05:16.517Z,100567.63
2024-02-08T00:07:43.089Z,100564.72
2024-02-08T00:10:10.234Z,100577.00
2024-02-08T00:12:41.115Z,100580.25
2024-02-08T00:15:08.528Z,100578.53
2024-02-08T00:17:35.269Z,100583.88
2024-02-08T00:20:02.745Z,100583.88
2024-02-08T00:22:29.348Z,100591.13
2024-02-08T00:24:56.509Z,100579.44
2024-02-08T00:27:23.206Z,100572.88
2024-02-08T00:29:49.705Z,100579.28
2024-02-08T00:32:16.524Z,100585.31
2024-02-08T00:34:43.180Z,100583.69
2024-02-08T00:37:09.840Z,100582.47
2024-02-08T00:39:43.408Z,100589.47
2024-02-08T00:42:12.376Z,100583.47
2024-02-08T00:44:42.605Z,100582.47
2024-02-08T00:47:12.663Z,100594.81
2024-02-08T00:49:42.875Z,100589.25
2024-02-08T00:52:09.886Z,100582.25
2024-02-08T00:54:36.917Z,100587.34
2024-02-08T00:57:08.786Z,100574.56
2024-02-08T00:59:39.100Z,100572.09
2024-02-08T01:02:06.995Z,100569.44
2024-02-08T01:04:36.803Z,100570.44
2024-02-08T01:07:03.975Z,100562.03
2024-02-08T01:09:30.400Z,100553.66
2024-02-08T01:11:57.007Z,100549.75
2024-02-08T01:14:23.408Z,100555.53
2024-02-08T01:16:51.334Z,100553.69
2024-02-08T01:19:23.316Z,100552.88
2024-02-08T01:21:54.053Z,100554.94
2024-02-08T01:24:20.581Z,100551.03
2024-02-08T01:26:48.315Z,100550.38
2024-02-08T01:29:15.797Z,100552.28
2024-02-08T01:31:42.885Z,100553.94
2024-02-08T01:34:10.415Z,100558.22
2024-02-08T01:36:41.536Z,100554.91
2024-02-08T01:39:24.152Z,100551.97
2024-02-08T01:41:51.997Z,100557.59
2024-02-08T01:44:19.191Z,100556.53
2024-02-08T01:46:49.475Z,100561.50
2024-02-08T01:49:20.905Z,100551.22
2024-02-08T01:51:47.916Z,100559.03
2024-02-08T01:54:15.548Z,100559.44
2024-02-08T01:56:45.726Z,100558.81
2024-02-08T01:59:20.976Z,100558.81
2024-02-08T02:01:52.256Z,100558.25
2024-02-08T02:04:18.983Z,100544.06
2024-02-08T02:06:45.710Z,100531.56
2024-02-08T02:09:20.033Z,100519.66
2024-02-08T02:11:52.688Z,100528.50
2024-02-08T02:14:19.769Z,100526.44
2024-02-08T02:16:47.743Z,100531.63
2024-02-08T02:19:14.329Z,100532.44
2024-02-08T02:21:40.980Z,100544.75
2024-02-08T02:24:08.956Z,100539.81
2024-02-08T02:26:36.356Z,100525.88
2024-02-08T02:29:04.399Z,100529.78
2024-02-08T02:31:33.735Z,100529.78
2024-02-08T02:34:01.524Z,100525.44
2024-02-08T02:36:28.124Z,100519.88
2024-02-08T02:38:54.535Z,100507.91
2024-02-08T02:41:23.701Z,100504.84
2024-02-08T02:43:50.136Z,100516.97
2024-02-08T02:46:19.450Z,100526.22
2024-02-08T02:48:46.127Z,100525.84
2024-02-08T02:51:13.486Z,100516.81
2024-02-08T02:53:43.474Z,100516.59
2024-02-08T02:56:10.423Z,100505.66
2024-02-08T02:58:37.086Z,100512.84
2024-02-08T03:01:05.977Z,100509.34
2024-02-08T03:03:41.547Z,100509.75
2024-02-08T03:06:17.859Z,100515.72
2024-02-08T03:08:45.729Z,100502.34
2024-02-08T03:11:13.635Z,100495.78
2024-02-08T03:13:41.791Z,100497.44
2024-02-08T03:16:11.176Z,100500.34
2024-02-08T03:18:44.770Z,100484.75
2024-02-08T03:21:12.606Z,100490.72
2024-02-08T03:23:39.549Z,100481.03
2024-02-08T03:26:08.325Z,100473.28
2024-02-08T03:28:36.853Z,100473.28
2024-02-08T03:31:03.421Z,100478.41
2024-02-08T03:33:29.942Z,100484.59
2024-02-08T03:35:56.418Z,100473.28
2024-02-08T03:38:25.245Z,100475.31
2024-02-08T03:40:51.813Z,100469.97
2024-02-08T03:43:18.276Z,100468.94
2024-02-08T03:45:47.830Z,100463.81
2024-02-08T03:48:15.770Z,100461.38
2024-02-08T03:50:42.448Z,100468.38
2024-02-08T03:53:13.956Z,100472.06
2024-02-08T03:55:45.524Z,100468.56
2024-02-08T03:58:15.187Z,100463.44
2024-02-08T04:00:48.996Z,100469.16
2024-02-08T04:03:17.811Z,100457.03
2024-02-08T04:05:47.349Z,100450.69
2024-02-08T04:08:32.450Z,100454.41
2024-02-08T04:10:58.907Z,100451.94
2024-02-08T04:13:45.454Z,100456.66
2024-02-08T04:16:31.479Z,100472.50
2024-02-08T04:19:18.419Z,100458.47
2024-02-08T04:22:03.692Z,100447.38
2024-02-08T04:24:49.075Z,100444.69
2024-02-08T04:27:34.495Z,100431.34
2024-02-08T04:30:19.322Z,100439.56
2024-02-08T04:33:07.640Z,100430.94
2024-02-08T04:35:52.852Z,100426.00
2024-02-08T04:38:37.790Z,100423.75
2024-02-08T04:41:23.269Z,100413.88
2024-02-08T04:44:08.199Z,100406.25
2024-02-08T04:46:53.574Z,100406.44
2024-02-08T04:49:38.672Z,100412.41
2024-02-08T04:52:23.959Z,100418.34
2024-02-08T04:54:50.432Z,100411.13
2024-02-08T04:57:16.884Z,100418.56
2024-02-08T04:59:46.212Z,100416.91
2024-02-08T05:02:13.181Z,100429.25
2024-02-08T05:04:39.729Z,100427.19
2024-02-08T05:07:08.296Z,100440.56
2024-02-08T05:09:35.152Z,100440.19
2024-02-08T05:12:06.493Z,100424.72
2024-02-08T05:14:36.190Z,100423.09
2024-02-08T05:17:03.444Z,100425.16
2024-02-08T05:19:30.235Z,100426.00
2024-02-08T05:22:01.310Z,100423.56
2024-02-08T05:24:29.106Z,100423.34
2024-02-08T05:26:56.499Z,100422.94
2024-02-08T05:29:23.107Z,100415.13
2024-02-08T05:31:52.684Z,100420.47
2024-02-08T05:34:19.720Z,100423.34
2024-02-08T05:36:47.922Z,100427.28
2024-02-08T05:39:15.020Z,100423.97
2024-02-08T05:41:46.152Z,100412.44
2024-02-08T05:44:13.824Z,100412.84
2024-02-08T05:46:40.654Z,100413.47
2024-02-08T05:49:15.620Z,100407.94
2024-02-08T05:51:48.056Z,100415.75
2024-02-08T05:54:21.616Z,100412.66
2024-02-08T05:56:51.071Z,100407.31
2024-02-08T05:59:19.295Z,100391.69
2024-02-08T06:01:55.477Z,100384.09
2024-02-08T06:04:36.421Z,100378.75
2024-02-08T06:07:09.652Z,100375.88
2024-02-08T06:09:50.278Z,100377.94
2024-02-08T06:12:29.149Z,100386.16
2024-02-08T06:15:01.459Z,100389.25
2024-02-08T06:17:34.480Z,100388.84
2024-02-08T06:20:02.136Z,100387.38
2024-02-08T06:22:30.339Z,100380.03
2024-02-08T06:25:09.701Z,100377.53
2024-02-08T06:27:42.778Z,100371.78
2024-02-08T06:30:10.822Z,100374.25
2024-02-08T06:32:46.708Z,100377.97
2024-02-08T06:35:20.865Z,100375.91
2024-02-08T06:38:04.371Z,100357.41
2024-02-08T06:40:50.526Z,100365.19
2024-02-08T06:43:26.738Z,100347.31
2024-02-08T06:46:10.538Z,100344.66
2024-02-08T06:49:10.170Z,100353.69
2024-02-08T06:51:55.898Z,100351.22
2024-02-08T06:54:40.869Z,100354.09
2024-02-08T06:57:25.679Z,100337.66
2024-02-08T07:00:10.665Z,100332.97
2024-02-08T07:02:57.850Z,100329.03
2024-02-08T07:05:42.975Z,100329.03
2024-02-08T07:08:28.037Z,100319.78
2024-02-08T07:11:12.875Z,100314.66
2024-02-08T07:13:57.823Z,100316.09
2024-02-08T07:16:42.604Z,100314.44
2024-02-08T07:19:27.616Z,100320.00
2024-02-08T07:22:12.725Z,100314.66
2024-02-08T07:25:03.597Z,100313.41
2024-02-08T07:27:49.071Z,100300.66
2024-02-08T07:30:34.453Z,100304.38
2024-02-08T07:33:19.817Z,100308.09
2024-02-08T07:36:04.969Z,100300.69
2024-02-08T07:38:49.994Z,100291.03
2024-02-08T07:41:20.261Z,100287.09
2024-02-08T07:43:55.792Z,100279.50
2024-02-08T07:46:31.051Z,100271.09
2024-02-08T07:49:00.155Z,100268.19
2024-02-08T07:51:30.113Z,100266.94
2024-02-08T07:53:59.613Z,100265.09
2024-02-08T07:56:26.370Z,100254.59
2024-02-08T07:58:53.009Z,100262.41
2024-02-08T08:01:20.103Z,100261.56
2024-02-08T08:03:46.784Z,100266.50
2024-02-08T08:06:16.578Z,100264.03
2024-02-08T08:08:58.525Z,100261.53
2024-02-08T08:11:32.356Z,100265.63
2024-02-08T08:13:58.917Z,100259.84
2024-02-08T08:16:31.905Z,100254.28
2024-02-08T08:18:59.558Z,100250.16
2024-02-08T08:21:27.337Z,100251.59
2024-02-08T08:24:03.804Z,100247.88
2024-02-08T08:26:45.779Z,100256.91
2024-02-08T08:29:18.291Z,100252.78
2024-02-08T08:32:09.180Z,100245.97
2024-02-08T08:34:56.001Z,100234.22
2024-02-08T08:37:41.320Z,100236.47
2024-02-08T08:40:39.182Z,100235.03
2024-02-08T08:43:20.465Z,100220.78
2024-02-08T08:45:53.946Z,100219.53
2024-02-08T08:48:21.828Z,100224.91
2024-02-08T08:50:56.396Z,100226.91
2024-02-08T08:53:28.412Z,100219.69
2024-02-08T08:55:56.630Z,100214.66
2024-02-08T08:58:28.879Z,100210.97
2024-02-08T09:01:13.099Z,100205.41
2024-02-08T09:03:41.153Z,100199.25
2024-02-08T09:06:13.328Z,100202.53
2024-02-08T09:08:45.287Z,100202.31
2024-02-08T09:11:15.873Z,100193.63
2024-02-08T09:13:52.376Z,100201.44
2024-02-08T09:16:26.453Z,100197.75
2024-02-08T09:19:02.101Z,100189.13
2024-02-08T09:21:34.437Z,100181.88
2024-02-08T09:24:05.591Z,100177.72
2024-02-08T09:26:55.265Z,100166.00
2024-02-08T09:29:29.618Z,100155.28
2024-02-08T09:32:00.578Z,100161.88
2024-02-08T09:34:42.429Z,100163.69
2024-02-08T09:37:10.399Z,100150.69
2024-02-08T09:39:55.246Z,100151.94
2024-02-08T09:42:28.469Z,100148.22
2024-02-08T09:44:57.865Z,100149.41
2024-02-08T09:47:32.851Z,100141.53
2024-02-08T09:50:02.388Z,100140.06
2024-02-08T09:52:35.817Z,100135.81
2024-02-08T09:55:19.848Z,100127.97
2024-02-08T09:57:47.733Z,100135.81
2024-02-08T10:00:36.085Z,100126.53
2024-02-08T10:03:05.649Z,100120.09
2024-02-08T10:05:58.703Z,100128.69
2024-02-08T10:08:33.501Z,100128.09
2024-02-08T10:11:23.179Z,100115.09
2024-02-08T10:14:03.224Z,100101.44
2024-02-08T10:16:32.269Z,100099.59
2024-02-08T10:19:04.727Z,100093.22
2024-02-08T10:21:36.862Z,100084.94
2024-02-08T10:24:22.019Z,100091.31
2024-02-08T10:26:48.503Z,100075.88
2024-02-08T10:29:17.916Z,100069.69
2024-02-08T10:31:54.104Z,100074.59
2024-02-08T10:34:35.274Z,100060.97
2024-02-08T10:37:05.235Z,100060.00
2024-02-08T10:39:33.314Z,100052.78
2024-02-08T10:42:01.613Z,100052.56
2024-02-08T10:44:30.715Z,100039.19
2024-02-08T10:46:58.945Z,100038.94
2024-02-08T10:49:27.087Z,100039.53
2024-02-08T10:52:01.760Z,100029.03
2024-02-08T10:54:43.927Z,100021.44
2024-02-08T10:57:32.131Z,100012.81
2024-02-08T11:00:00.488Z,100003.72
2024-02-08T11:02:36.348Z,100015.50
2024-02-08T11:05:23.073Z,100006.41
2024-02-08T11:07:52.455Z,100003.53
2024-02-08T11:10:24.630Z,100018.91
2024-02-08T11:12:58.085Z,100023.00
2024-02-08T11:15:39.880Z,100023.00
2024-02-08T11:18:10.050Z,100024.41
2024-02-08T11:20:44.494Z,100010.56
2024-02-08T11:23:19.434Z,100005.66
2024-02-08T11:25:46.597Z,99998.53
2024-02-08T11:28:25.604Z,99984.75
2024-02-08T11:30:54.462Z,99974.34
2024-02-08T11:33:34.146Z,99982.59
2024-02-08T11:36:15.837Z,99995.34
2024-02-08T11:38:48.071Z,100012.13
2024-02-08T11:41:16.857Z,99991.75
2024-02-08T11:43:49.505Z,99972.00
2024-02-08T11:46:22.812Z,99963.84
2024-02-08T11:48:50.850Z,99972.00
2024-02-08T11:51:18.731Z,100004.16
2024-02-08T11:53:46.708Z,100010.34
2024-02-08T11:56:13.846Z,99996.31
2024-02-08T11:58:48.048Z,99983.94
2024-02-08T12:01:15.914Z,99982.91
2024-02-08T12:03:43.387Z,99973.22
2024-02-08T12:06:18.609Z,99978.28
2024-02-08T12:09:04.205Z,99972.31
2024-02-08T12:11:35.411Z,99964.16
2024-02-08T12:14:20.438Z,99965.63
2024-02-08T12:16:58.668Z,99952.69
2024-02-08T12:19:27.310Z,99950.09
2024-02-08T12:21:58.927Z,99940.63
2024-02-08T12:24:26.378Z,99931.84
2024-02-08T12:27:06.351Z,99930.88
2024-02-08T12:29:34.993Z,99928.28
2024-02-08T12:32:01.726Z,99921.13
2024-02-08T12:34:34.312Z,99911.31
2024-02-08T12:37:07.438Z,99906.84
2024-02-08T12:39:50.546Z,99916.53
2024-02-08T12:42:19.214Z,99891.81
2024-02-08T12:44:50.150Z,99885.44
2024-02-08T12:47:20.448Z,99869.81
2024-02-08T12:49:51.770Z,99871.06
2024-02-08T12:52:21.271Z,99864.16
2024-02-08T12:54:55.278Z,99847.78
2024-02-08T12:57:24.741Z,99839.84
2024-02-08T13:00:04.066Z,99836.34
2024-02-08T13:02:34.546Z,99832.84
2024-02-08T13:05:05.675Z,99832.25
2024-02-08T13:07:36.487Z,99838.06
2024-02-08T13:10:15.703Z,99824.88
2024-02-08T13:12:43.053Z,99812.56
2024-02-08T13:15:11.346Z,99815.44
2024-02-08T13:17:39.175Z,99812.88
2024-02-08T13:20:18.152Z,99802.81
2024-02-08T13:22:49.599Z,99791.09
2024-02-08T13:25:17.754Z,99781.66
2024-02-08T13:27:47.561Z,99771.00
2024-02-08T13:30:17.525Z,99762.59
2024-02-08T13:32:53.719Z,99756.00
2024-02-08T13:35:21.302Z,99737.50
2024-02-08T13:37:54.251Z,99736.25
2024-02-08T13:40:23.937Z,99734.34
2024-02-08T13:42:57.215Z,99727.94
2024-02-08T13:45:31.216Z,99737.38
2024-02-08T13:48:02.487Z,99734.94
2024-02-08T13:50:31.767Z,99716.06
2024-02-08T13:53:00.717Z,99709.91
2024-02-08T13:55:45.188Z,99707.44
2024-02-08T13:58:19.643Z,99693.84
2024-02-08T14:00:46.506Z,99667.50
2024-02-08T14:03:17.843Z,99650.84
2024-02-08T14:05:52.097Z,99658.41
2024-02-08T14:08:19.688Z,99663.69
2024-02-08T14:10:46.832Z,99661.00
2024-02-08T14:13:17.915Z,99654.47
2024-02-08T14:15:46.959Z,99641.53
2024-02-08T14:18:27.445Z,99642.16
2024-02-08T14:20:57.825Z,99633.69
2024-02-08T14:23:42.274Z,99632.03
2024-02-08T14:26:10.006Z,99623.00
2024-02-08T14:28:47.489Z,99617.63
2024-02-08T14:31:15.213Z,99611.22
2024-02-08T14:33:48.777Z,99623.00
2024-02-08T14:36:17.934Z,99604.59
2024-02-08T14:38:46.362Z,99581.41
2024-02-08T14:41:27.395Z,99575.84
2024-02-08T14:43:55.284Z,99578.97
2024-02-08T14:46:27.462Z,99572.66
2024-02-08T14:48:55.036Z,99560.69
2024-02-08T14:51:24.685Z,99552.31
2024-02-08T14:53:55.055Z,99545.22
2024-02-08T14:56:22.204Z,99527.53
2024-02-08T14:59:10.645Z,99519.50
2024-02-08T15:01:41.359Z,99511.03
2024-02-08T15:04:19.020Z,99497.31
2024-02-08T15:07:05.306Z,99492.31
2024-02-08T15:09:36.097Z,99494.41
2024-02-08T15:12:35.897Z,99483.13
2024-02-08T15:15:07.202Z,99485.22
2024-02-08T15:17:44.151Z,99476.63
2024-02-08T15:20:30.169Z,99467.53
2024-02-08T15:23:10.723Z,99470.44
2024-02-08T15:25:47.090Z,99455.31
2024-02-08T15:28:33.853Z,99453.47
2024-02-08T15:31:23.231Z,99451.25
2024-02-08T15:34:08.865Z,99443.69
2024-02-08T15:36:54.331Z,99438.13
2024-02-08T15:39:50.645Z,99432.78
2024-02-08T15:42:32.755Z,99423.38
2024-02-08T15:45:00.507Z,99426.25
2024-02-08T15:47:30.259Z,99422.19
2024-02-08T15:49:57.803Z,99414.16
2024-02-08T15:52:35.013Z,99419.94
2024-02-08T15:55:16.047Z,99408.69
2024-02-08T15:57:47.930Z,99410.31
2024-02-08T16:00:33.535Z,99415.44
2024-02-08T16:03:03.810Z,99404.16
2024-02-08T16:05:30.520Z,99407.41
2024-02-08T16:08:07.039Z,99396.94
2024-02-08T16:10:33.897Z,99402.28
2024-02-08T16:13:07.303Z,99411.94
2024-02-08T16:15:53.948Z,99406.00
2024-02-08T16:18:27.967Z,99402.53
2024-02-08T16:20:55.876Z,99407.41
2024-02-08T16:23:28.046Z,99410.47
2024-02-08T16:26:07.749Z,99420.09
2024-02-08T16:28:47.060Z,99413.13
2024-02-08T16:31:16.566Z,99405.13
2024-02-08T16:33:54.426Z,99402.44
2024-02-08T16:36:43.141Z,99404.50
2024-02-08T16:39:15.526Z,99405.31
2024-02-08T16:42:02.826Z,99401.25
2024-02-08T16:44:51.056Z,99398.00
2024-02-08T16:47:35.841Z,99377.09
2024-02-08T16:50:18.356Z,99373.84
2024-02-08T16:52:50.624Z,99360.47
2024-02-08T16:55:22.435Z,99368.25
2024-02-08T16:58:02.001Z,99351.41
2024-02-08T17:00:39.926Z,99357.31
2024-02-08T17:03:18.883Z,99362.31
2024-02-08T17:05:54.590Z,99367.44
2024-02-08T17:08:31.077Z,99358.13
2024-02-08T17:11:02.361Z,99355.25
2024-02-08T17:13:31.384Z,99343.50
2024-02-08T17:16:01.773Z,99348.41
2024-02-08T17:18:35.156Z,99337.94
2024-02-08T17:21:16.319Z,99340.63
2024-02-08T17:23:44.159Z,99336.09
2024-02-08T17:26:27.574Z,99335.50
2024-02-08T17:29:08.484Z,99323.66
2024-02-08T17:31:43.244Z,99325.88
2024-02-08T17:34:11.158Z,99321.56
2024-02-08T17:36:44.798Z,99314.94
2024-02-08T17:39:25.372Z,99320.88
2024-02-08T17:41:52.981Z,99319.25
2024-02-08T17:44:20.325Z,99317.97
2024-02-08T17:46:47.905Z,99304.16
2024-02-08T17:49:20.566Z,99296.34
2024-02-08T17:51:50.930Z,99289.63
2024-02-08T17:54:25.896Z,99293.34
2024-02-08T17:56:53.459Z,99289.03
2024-02-08T17:59:19.999Z,99279.75
2024-02-08T18:01:57.327Z,99289.03
2024-02-08T18:04:26.755Z,99288.84
2024-02-08T18:06:59.997Z,99284.28
2024-02-08T18:09:31.012Z,99267.47
2024-02-08T18:12:13.209Z,99265.56
2024-02-08T18:14:43.822Z,99264.78
2024-02-08T18:17:20.703Z,99256.53
2024-02-08T18:19:48.068Z,99262.44
2024-02-08T18:22:15.684Z,99273.13
2024-02-08T18:24:49.413Z,99265.34
2024-02-08T18:27:23.392Z,99254.88
2024-02-08T18:29:52.450Z,99252.56
2024-02-08T18:32:20.186Z,99248.63
2024-02-08T18:34:51.095Z,99252.38
2024-02-08T18:37:26.368Z,99262.56
2024-02-08T18:39:55.070Z,99253.50
2024-02-08T18:42:23.380Z,99247.34
2024-02-08T18:44:50.247Z,99227.81
2024-02-08T18:47:20.012Z,99226.78
2024-02-08T18:50:08.240Z,99229.47
2024-02-08T18:52:37.829Z,99224.69
2024-02-08T18:55:10.454Z,99227.16
2024-02-08T18:57:37.367Z,99219.69
2024-02-08T19:00:14.242Z,99218.88
2024-02-08T19:02:41.301Z,99217.84
2024-02-08T19:05:08.262Z,99220.06
2024-02-08T19:07:34.937Z,99201.09
2024-02-08T19:10:02.517Z,99197.38
2024-02-08T19:12:29.714Z,99194.72
2024-02-08T19:14:56.165Z,99189.13
2024-02-08T19:17:22.915Z,99187.06
2024-02-08T19:19:49.860Z,99184.94
2024-02-08T19:22:24.182Z,99179.59
2024-02-08T19:24:52.600Z,99181.25
2024-02-08T19:27:19.841Z,99180.16
2024-02-08T19:29:46.295Z,99179.34
2024-02-08T19:32:19.977Z,99169.94
2024-02-08T19:34:53.525Z,99169.16
2024-02-08T19:37:22.174Z,99171.34
2024-02-08T19:39:55.640Z,99169.25
2024-02-08T19:42:25.078Z,99167.41
2024-02-08T19:44:55.842Z,99164.72
2024-02-08T19:47:27.700Z,99165.31
2024-02-08T19:50:02.549Z,99156.00
2024-02-08T19:52:32.867Z,99160.31
2024-02-08T19:55:04.274Z,99157.63
2024-02-08T19:57:40.409Z,99151.78
2024-02-08T20:00:18.455Z,99152.13
2024-02-08T20:02:45.545Z,99146.78
2024-02-08T20:05:13.387Z,99150.53
2024-02-08T20:07:41.012Z,99148.41
2024-02-08T20:10:15.430Z,99139.38
2024-02-08T20:12:50.175Z,99138.28
2024-02-08T20:15:21.553Z,99135.16
2024-02-08T20:17:50.752Z,99138.41
2024-02-08T20:20:22.162Z,99133.03
2024-02-08T20:22:57.031Z,99114.94
2024-02-08T20:25:27.195Z,99118.16
2024-02-08T20:28:01.961Z,99112.34
2024-02-08T20:30:29.725Z,99115.22
2024-02-08T20:33:00.274Z,99116.06
2024-02-08T20:35:34.935Z,99116.06
2024-02-08T20:38:06.218Z,99107.56
2024-02-08T20:40:32.747Z,99107.34
2024-02-08T20:43:00.571Z,99104.97
2024-02-08T20:45:28.343Z,99096.47
2024-02-08T20:47:55.245Z,99096.47
2024-02-08T20:50:21.915Z,99098.09
2024-02-08T20:52:50.589Z,99089.03
2024-02-08T20:55:25.071Z,99091.47
2024-02-08T20:57:53.764Z,99078.09
2024-02-08T21:00:23.428Z,99087.50
2024-02-08T21:02:52.992Z,99097.16
2024-02-08T21:05:22.267Z,99088.41
2024-02-08T21:07:49.017Z,99085.50
2024-02-08T21:10:15.753Z,99079.34
2024-02-08T21:12:43.449Z,99085.00
2024-02-08T21:15:10.413Z,99069.75
2024-02-08T21:17:46.414Z,99085.59
2024-02-08T21:20:16.899Z,99071.13
2024-02-08T21:22:43.906Z,99067.19
2024-02-08T21:25:16.473Z,99061.31
2024-02-08T21:27:46.662Z,99052.53
2024-02-08T21:30:13.919Z,99055.75
2024-02-08T21:32:41.437Z,99049.34
2024-02-08T21:35:12.422Z,99048.84
2024-02-08T21:37:38.964Z,99043.00
2024-02-08T21:40:06.156Z,99048.97
2024-02-08T21:42:33.436Z,99042.53
2024-02-08T21:45:01.318Z,99043.13
2024-02-08T21:47:28.028Z,99041.00
2024-02-08T21:49:54.709Z,99029.81
2024-02-08T21:52:21.406Z,99025.03
2024-02-08T21:54:47.922Z,99027.22
2024-02-08T21:57:17.452Z,99017.88
2024-02-08T21:59:43.889Z,99018.22
2024-02-08T22:02:10.337Z,99022.00
2024-02-08T22:04:38.959Z,99027.13
2024-02-08T22:07:07.119Z,99021.50
2024-02-08T22:09:33.738Z,99026.38
2024-02-08T22:12:00.706Z,99027.75
2024-02-08T22:14:28.602Z,99019.50
2024-02-08T22:16:59.376Z,99019.56
2024-02-08T22:19:34.519Z,99011.59
2024-02-08T22:22:01.062Z,99008.91
2024-02-08T22:24:27.501Z,99005.19
2024-02-08T22:26:53.908Z,99001.75
2024-02-08T22:29:20.623Z,98994.59
2024-02-08T22:31:47.737Z,98988.75
2024-02-08T22:34:14.444Z,98998.41
2024-02-08T22:36:42.350Z,98990.13
2024-02-08T22:39:14.958Z,98992.56
2024-02-08T22:41:45.953Z,98984.81
2024-02-08T22:44:12.573Z,98984.31
2024-02-08T22:46:45.657Z,98978.47
2024-02-08T22:49:16.092Z,98977.16
2024-02-08T22:51:46.662Z,98972.38
2024-02-08T22:54:13.165Z,98961.16
2024-02-08T22:56:42.103Z,98962.03
2024-02-08T22:59:11.262Z,98964.22
2024-02-08T23:01:39.364Z,98959.16
2024-02-08T23:04:08.391Z,98955.75
2024-02-08T23:06:36.828Z,98939.94
2024-02-08T23:09:07.479Z,98937.56
2024-02-08T23:11:34.778Z,98941.63
2024-02-08T23:14:04.651Z,98934.16
2024-02-08T23:16:32.949Z,98926.97
2024-02-08T23:19:03.328Z,98921.09
2024-02-08T23:21:32.003Z,98919.28
2024-02-08T23:24:08.107Z,98912.88
2024-02-08T23:26:37.977Z,98911.88
2024-02-08T23:29:05.116Z,98909.78
2024-02-08T23:31:34.622Z,98903.94
2024-02-08T23:34:01.406Z,98903.44
2024-02-08T23:36:29.155Z,98898.13
2024-02-08T23:39:00.641Z,98890.09
2024-02-08T23:41:30.616Z,98891.75
2024-02-08T23:44:00.539Z,98883.19
2024-02-08T23:46:27.416Z,98886.19
2024-02-08T23:48:58.036Z,98875.22
2024-02-08T23:51:25.261Z,98869.63
2024-02-08T23:53:52.622Z,98865.38
2024-02-08T23:56:24.818Z,98861.91
2024-02-08T23:58:53.475Z,98857.69
